createdAt,value
2022-08-28T00:00:13.843Z,18.50
2022-08-28T00:01:15.244Z,18.60
2022-08-28T00:02:13.163Z,18.30
2022-08-28T00:03:13.135Z,18.40
2022-08-28T00:04:13.544Z,18.50
2022-08-28T00:05:13.398Z,18.50
2022-08-28T00:06:13.601Z,18.20
2022-08-28T00:07:13.781Z,18.20
2022-08-28T00:08:13.807Z,18.30
2022-08-28T00:09:12.870Z,18.30
2022-08-28T00:10:13.830Z,18.40
2022-08-28T00:11:15.097Z,18.40
2022-08-28T00:12:13.206Z,18.30
2022-08-28T00:13:13.252Z,18.10
2022-08-28T00:14:13.177Z,18.10
2022-08-28T00:15:13.358Z,18.10
2022-08-28T00:16:13.323Z,18.00
2022-08-28T00:17:13.227Z,18.10
2022-08-28T00:18:13.354Z,18.20
2022-08-28T00:19:13.517Z,18.00
2022-08-28T00:20:13.386Z,18.10
2022-08-28T00:21:13.269Z,18.20
2022-08-28T00:22:13.120Z,18.30
2022-08-28T00:23:14.031Z,18.20
2022-08-28T00:24:13.264Z,18.50
2022-08-28T00:25:13.188Z,18.00
2022-08-28T00:26:13.502Z,18.10
2022-08-28T00:27:13.785Z,18.10
2022-08-28T00:28:23.705Z,17.90
2022-08-28T00:29:13.420Z,17.90
2022-08-28T00:30:13.315Z,17.70
2022-08-28T00:31:13.379Z,18.00
2022-08-28T00:32:13.601Z,18.00
2022-08-28T00:33:13.499Z,17.80
2022-08-28T00:34:13.547Z,17.90
2022-08-28T00:35:13.700Z,17.90
2022-08-28T00:36:13.621Z,17.90
2022-08-28T00:37:13.705Z,18.20
2022-08-28T00:38:14.262Z,17.90
2022-08-28T00:39:13.501Z,18.00
2022-08-28T00:40:13.423Z,18.10
2022-08-28T00:41:14.141Z,17.90
2022-08-28T00:42:13.113Z,18.00
2022-08-28T00:43:13.034Z,18.00
2022-08-28T00:44:13.069Z,17.80
2022-08-28T00:45:13.005Z,18.00
2022-08-28T00:46:12.904Z,17.80
2022-08-28T00:47:13.014Z,17.80
2022-08-28T00:48:13.067Z,17.80
2022-08-28T00:49:13.453Z,17.90
2022-08-28T00:50:13.378Z,18.00
2022-08-28T00:51:13.288Z,18.00
2022-08-28T00:52:13.631Z,18.30
2022-08-28T00:53:18.659Z,18.20
2022-08-28T00:54:14.195Z,18.00
2022-08-28T00:55:13.012Z,17.90
2022-08-28T00:56:13.441Z,17.90
2022-08-28T00:57:13.738Z,18.10
2022-08-28T00:58:14.042Z,18.00
2022-08-28T00:59:13.167Z,18.30
2022-08-28T01:00:13.627Z,18.20
2022-08-28T01:01:14.022Z,18.00
2022-08-28T01:02:13.101Z,17.60
2022-08-28T01:03:13.562Z,17.70
2022-08-28T01:04:13.580Z,17.60
2022-08-28T01:05:13.621Z,17.50
2022-08-28T01:06:13.742Z,17.80
2022-08-28T01:07:13.683Z,17.80
2022-08-28T01:08:14.210Z,18.00
2022-08-28T01:09:13.249Z,17.90
2022-08-28T01:10:13.120Z,17.90
2022-08-28T01:11:13.129Z,17.70
2022-08-28T01:12:13.302Z,17.70
2022-08-28T01:13:13.211Z,17.60
2022-08-28T01:14:13.131Z,17.70
2022-08-28T01:15:13.975Z,17.60
2022-08-28T01:16:13.692Z,17.70
2022-08-28T01:17:13.667Z,17.50
2022-08-28T01:18:13.639Z,17.30
2022-08-28T01:19:13.697Z,17.40
2022-08-28T01:20:18.704Z,17.40
2022-08-28T01:21:20.114Z,17.50
2022-08-28T01:22:13.534Z,17.40
2022-08-28T01:23:13.887Z,17.40
2022-08-28T01:24:13.129Z,17.30
2022-08-28T01:25:13.987Z,17.30
2022-08-28T01:26:12.864Z,17.30
2022-08-28T01:27:13.776Z,17.30
2022-08-28T01:28:13.857Z,17.40
2022-08-28T01:29:13.216Z,17.40
2022-08-28T01:30:13.080Z,17.20
2022-08-28T01:31:13.343Z,17.30
2022-08-28T01:32:13.658Z,17.40
2022-08-28T01:33:13.698Z,17.30
2022-08-28T01:34:13.928Z,17.00
2022-08-28T01:35:12.743Z,17.00
2022-08-28T01:36:13.792Z,17.00
2022-08-28T01:37:14.280Z,17.00
2022-08-28T01:38:14.207Z,17.00
2022-08-28T01:39:13.587Z,17.10
2022-08-28T01:40:13.440Z,17.10
2022-08-28T01:41:13.384Z,17.20
2022-08-28T01:42:13.420Z,17.20
2022-08-28T01:43:13.587Z,17.00
2022-08-28T01:44:13.728Z,17.10
2022-08-28T01:45:13.004Z,17.10
2022-08-28T01:46:13.123Z,17.10
2022-08-28T01:47:13.158Z,17.00
2022-08-28T01:48:13.272Z,17.00
2022-08-28T01:49:13.274Z,17.00
2022-08-28T01:50:13.421Z,16.90
2022-08-28T01:51:13.562Z,16.90
2022-08-28T01:52:13.425Z,16.80
2022-08-28T01:53:13.209Z,16.90
2022-08-28T01:54:13.108Z,16.80
2022-08-28T01:55:13.130Z,16.90
2022-08-28T01:56:13.290Z,16.80
2022-08-28T01:57:13.320Z,16.80
2022-08-28T01:58:13.994Z,17.00
2022-08-28T01:59:14.532Z,16.80
2022-08-28T02:00:13.519Z,16.80
2022-08-28T02:01:13.711Z,16.80
2022-08-28T02:02:14.021Z,16.70
2022-08-28T02:03:12.927Z,16.60
2022-08-28T02:04:12.987Z,16.70
2022-08-28T02:05:13.138Z,16.60
2022-08-28T02:06:12.998Z,16.60
2022-08-28T02:07:13.262Z,16.60
2022-08-28T02:08:13.322Z,16.50
2022-08-28T02:09:14.237Z,16.50
2022-08-28T02:10:12.769Z,16.60
2022-08-28T02:11:13.875Z,16.40
2022-08-28T02:12:14.110Z,16.30
2022-08-28T02:13:13.158Z,16.40
2022-08-28T02:14:13.079Z,16.60
2022-08-28T02:15:13.442Z,16.70
2022-08-28T02:16:13.448Z,16.60
2022-08-28T02:17:13.722Z,16.60
2022-08-28T02:18:14.047Z,16.50
2022-08-28T02:19:13.364Z,16.40
2022-08-28T02:20:13.241Z,16.40
2022-08-28T02:21:13.512Z,16.40
2022-08-28T02:22:13.588Z,16.40
2022-08-28T02:23:13.914Z,16.40
2022-08-28T02:24:13.045Z,16.50
2022-08-28T02:25:12.921Z,16.50
2022-08-28T02:26:12.904Z,16.60
2022-08-28T02:27:12.960Z,16.30
2022-08-28T02:28:13.440Z,16.30
2022-08-28T02:29:13.434Z,16.40
2022-08-28T02:30:13.295Z,16.30
2022-08-28T02:31:13.241Z,16.30
2022-08-28T02:32:13.144Z,16.30
2022-08-28T02:33:13.079Z,16.30
2022-08-28T02:34:12.918Z,16.40
2022-08-28T02:35:12.689Z,16.50
2022-08-28T02:36:13.572Z,16.60
2022-08-28T02:37:13.656Z,16.40
2022-08-28T02:38:13.719Z,16.50
2022-08-28T02:39:13.685Z,16.30
2022-08-28T02:40:13.600Z,16.30
2022-08-28T02:41:13.821Z,16.40
2022-08-28T02:42:14.059Z,16.40
2022-08-28T02:43:13.110Z,16.30
2022-08-28T02:44:12.957Z,16.30
2022-08-28T02:45:13.180Z,16.30
2022-08-28T02:46:13.095Z,16.20
2022-08-28T02:47:13.123Z,16.30
2022-08-28T02:48:17.397Z,16.00
2022-08-28T02:49:13.720Z,16.00
2022-08-28T02:50:13.742Z,15.90
2022-08-28T02:51:13.887Z,16.00
2022-08-28T02:52:13.752Z,16.20
2022-08-28T02:53:13.932Z,16.20
2022-08-28T02:54:13.081Z,16.10
2022-08-28T02:55:14.006Z,16.10
2022-08-28T02:56:13.156Z,16.10
2022-08-28T02:57:13.315Z,16.20
2022-08-28T02:58:13.873Z,16.30
2022-08-28T02:59:12.894Z,16.10
2022-08-28T03:00:12.747Z,16.10
2022-08-28T03:01:13.659Z,16.00
2022-08-28T03:02:13.824Z,15.80
2022-08-28T03:03:13.733Z,16.10
2022-08-28T03:04:13.842Z,15.60
2022-08-28T03:05:14.151Z,15.70
2022-08-28T03:06:13.097Z,15.70
2022-08-28T03:07:12.923Z,15.70
2022-08-28T03:08:13.190Z,15.60
2022-08-28T03:09:13.394Z,15.70
2022-08-28T03:10:13.374Z,15.60
2022-08-28T03:11:13.232Z,15.40
2022-08-28T03:12:13.269Z,15.50
2022-08-28T03:13:13.834Z,15.50
2022-08-28T03:14:13.282Z,15.60
2022-08-28T03:15:13.262Z,15.50
2022-08-28T03:16:13.628Z,15.30
2022-08-28T03:17:13.753Z,15.60
2022-08-28T03:18:15.549Z,15.60
2022-08-28T03:19:13.020Z,15.50
2022-08-28T03:20:13.188Z,15.40
2022-08-28T03:21:13.222Z,15.50
2022-08-28T03:22:13.130Z,15.50
2022-08-28T03:23:13.235Z,15.40
2022-08-28T03:24:15.634Z,15.40
2022-08-28T03:25:13.764Z,15.30
2022-08-28T03:26:13.638Z,15.20
2022-08-28T03:27:13.585Z,15.20
2022-08-28T03:28:13.642Z,15.30
2022-08-28T03:29:13.587Z,15.40
2022-08-28T03:30:13.658Z,15.40
2022-08-28T03:31:14.107Z,15.30
2022-08-28T03:32:12.962Z,15.40
2022-08-28T03:33:12.865Z,15.10
2022-08-28T03:34:14.136Z,15.30
2022-08-28T03:35:13.050Z,15.30
2022-08-28T03:36:13.437Z,15.30
2022-08-28T03:37:13.459Z,15.30
2022-08-28T03:38:13.483Z,15.30
2022-08-28T03:39:13.966Z,15.20
2022-08-28T03:40:12.976Z,15.20
2022-08-28T03:41:13.298Z,15.30
2022-08-28T03:42:13.358Z,15.30
2022-08-28T03:43:13.775Z,15.20
2022-08-28T03:44:13.694Z,15.10
2022-08-28T03:45:13.598Z,15.10
2022-08-28T03:46:13.495Z,15.20
2022-08-28T03:47:13.393Z,15.20
2022-08-28T03:48:13.602Z,15.10
2022-08-28T03:49:13.503Z,15.10
2022-08-28T03:50:13.417Z,15.10
2022-08-28T03:51:13.461Z,15.20
2022-08-28T03:52:13.833Z,15.20
2022-08-28T03:53:13.688Z,15.10
2022-08-28T03:54:14.063Z,15.10
2022-08-28T03:55:13.492Z,15.20
2022-08-28T03:56:13.731Z,15.20
2022-08-28T03:57:13.973Z,15.30
2022-08-28T03:58:18.777Z,15.30
2022-08-28T03:59:13.486Z,15.20
2022-08-28T04:00:13.582Z,15.30
2022-08-28T04:01:13.687Z,15.30
2022-08-28T04:02:13.693Z,15.50
2022-08-28T04:03:13.947Z,15.50
2022-08-28T04:04:12.929Z,15.20
2022-08-28T04:05:13.044Z,15.30
2022-08-28T04:06:13.486Z,15.20
2022-08-28T04:07:13.907Z,15.30
2022-08-28T04:08:12.885Z,15.30
2022-08-28T04:09:12.806Z,15.20
2022-08-28T04:10:13.896Z,15.40
2022-08-28T04:11:12.805Z,15.40
2022-08-28T04:12:13.666Z,15.30
2022-08-28T04:13:13.671Z,15.20
2022-08-28T04:14:14.177Z,15.50
2022-08-28T04:15:14.342Z,15.30
2022-08-28T04:16:13.403Z,15.40
2022-08-28T04:17:13.411Z,15.40
2022-08-28T04:18:13.573Z,15.40
2022-08-28T04:19:14.271Z,15.30
2022-08-28T04:20:18.200Z,15.40
2022-08-28T04:21:13.366Z,15.50
2022-08-28T04:22:13.502Z,15.70
2022-08-28T04:23:13.370Z,15.90
2022-08-28T04:24:13.306Z,15.90
2022-08-28T04:25:13.519Z,15.90
2022-08-28T04:26:13.665Z,16.00
2022-08-28T04:27:13.729Z,15.90
2022-08-28T04:28:13.971Z,15.90
2022-08-28T04:29:12.949Z,15.90
2022-08-28T04:30:13.004Z,16.00
2022-08-28T04:31:12.854Z,15.80
2022-08-28T04:32:14.031Z,15.60
2022-08-28T04:33:12.920Z,15.70
2022-08-28T04:34:13.043Z,15.70
2022-08-28T04:35:12.945Z,15.70
2022-08-28T04:36:13.116Z,15.80
2022-08-28T04:37:13.383Z,15.70
2022-08-28T04:38:13.498Z,15.70
2022-08-28T04:39:13.495Z,15.90
2022-08-28T04:40:13.451Z,15.90
2022-08-28T04:41:13.293Z,15.70
2022-08-28T04:42:13.323Z,15.70
2022-08-28T04:43:13.208Z,15.70
2022-08-28T04:44:13.214Z,15.90
2022-08-28T04:45:13.399Z,15.80
2022-08-28T04:46:13.711Z,15.80
2022-08-28T04:47:13.923Z,15.90
2022-08-28T04:48:13.796Z,15.80
2022-08-28T04:49:13.388Z,15.70
2022-08-28T04:50:13.579Z,15.70
2022-08-28T04:51:13.635Z,15.60
2022-08-28T04:52:15.389Z,15.80
2022-08-28T04:53:13.703Z,15.80
2022-08-28T04:54:13.644Z,15.70
2022-08-28T04:55:13.718Z,15.80
2022-08-28T04:56:13.556Z,15.80
2022-08-28T04:57:13.723Z,15.80
2022-08-28T04:58:13.753Z,15.70
2022-08-28T04:59:13.713Z,15.70
2022-08-28T05:00:13.822Z,15.70
2022-08-28T05:01:13.976Z,15.80
2022-08-28T05:02:13.179Z,15.70
2022-08-28T05:03:13.079Z,15.70
2022-08-28T05:04:12.981Z,15.80
2022-08-28T05:05:13.106Z,15.70
2022-08-28T05:06:13.131Z,15.80
2022-08-28T05:07:13.318Z,15.90
2022-08-28T05:08:13.436Z,15.80
2022-08-28T05:09:13.475Z,15.90
2022-08-28T05:10:13.763Z,15.80
2022-08-28T05:11:34.408Z,15.90
2022-08-28T05:12:13.877Z,15.90
2022-08-28T05:13:13.751Z,16.00
2022-08-28T05:14:16.126Z,15.80
2022-08-28T05:15:13.489Z,15.90
2022-08-28T05:16:13.474Z,15.70
2022-08-28T05:17:13.462Z,15.80
2022-08-28T05:18:13.593Z,16.00
2022-08-28T05:19:13.622Z,15.80
2022-08-28T05:20:13.470Z,16.00
2022-08-28T05:21:14.461Z,15.90
2022-08-28T05:22:14.131Z,15.90
2022-08-28T05:23:13.116Z,15.70
2022-08-28T05:24:13.786Z,15.90
2022-08-28T05:25:13.893Z,15.90
2022-08-28T05:26:12.859Z,15.60
2022-08-28T05:27:14.097Z,15.90
2022-08-28T05:28:13.099Z,16.00
2022-08-28T05:29:13.110Z,15.90
2022-08-28T05:30:13.167Z,16.00
2022-08-28T05:31:13.361Z,16.20
2022-08-28T05:32:13.334Z,16.10
2022-08-28T05:33:13.453Z,15.90
2022-08-28T05:34:13.296Z,16.00
2022-08-28T05:35:13.203Z,16.20
2022-08-28T05:36:13.084Z,15.90
2022-08-28T05:37:17.666Z,15.80
2022-08-28T05:38:13.578Z,15.60
2022-08-28T05:39:13.619Z,15.70
2022-08-28T05:40:13.664Z,15.60
2022-08-28T05:41:13.742Z,15.60
2022-08-28T05:42:14.625Z,15.50
2022-08-28T05:43:13.656Z,15.80
2022-08-28T05:44:13.681Z,15.70
2022-08-28T05:45:13.586Z,15.80
2022-08-28T05:46:13.525Z,16.00
2022-08-28T05:47:13.644Z,16.00
2022-08-28T05:48:14.251Z,15.80
2022-08-28T05:49:13.377Z,15.80
2022-08-28T05:50:13.329Z,16.00
2022-08-28T05:51:13.289Z,16.30
2022-08-28T05:52:13.236Z,16.10
2022-08-28T05:53:13.096Z,16.10
2022-08-28T05:54:13.330Z,15.90
2022-08-28T05:55:13.515Z,15.70
2022-08-28T05:56:13.679Z,15.80
2022-08-28T05:57:13.539Z,15.70
2022-08-28T05:58:13.939Z,15.80
2022-08-28T05:59:13.559Z,15.90
2022-08-28T06:00:13.450Z,16.00
2022-08-28T06:01:31.764Z,16.30
2022-08-28T06:02:13.830Z,15.90
2022-08-28T06:03:14.110Z,16.20
2022-08-28T06:04:13.058Z,16.20
2022-08-28T06:05:13.331Z,16.00
2022-08-28T06:06:14.223Z,16.30
2022-08-28T06:07:13.098Z,16.30
2022-08-28T06:08:13.366Z,16.00
2022-08-28T06:09:13.551Z,15.90
2022-08-28T06:10:13.441Z,16.20
2022-08-28T06:11:13.714Z,16.30
2022-08-28T06:12:18.703Z,16.00
2022-08-28T06:13:16.326Z,16.30
2022-08-28T06:14:13.601Z,16.00
2022-08-28T06:15:13.770Z,16.20
2022-08-28T06:16:14.155Z,16.40
2022-08-28T06:17:13.158Z,16.10
2022-08-28T06:18:13.117Z,16.20
2022-08-28T06:19:14.068Z,16.00
2022-08-28T06:20:13.189Z,16.30
2022-08-28T06:21:13.101Z,16.30
2022-08-28T06:22:13.233Z,16.10
2022-08-28T06:23:15.417Z,16.00
2022-08-28T06:24:13.100Z,15.90
2022-08-28T06:25:13.229Z,16.20
2022-08-28T06:26:13.173Z,16.20
2022-08-28T06:27:18.144Z,16.30
2022-08-28T06:28:13.295Z,16.20
2022-08-28T06:29:13.621Z,16.60
2022-08-28T06:30:13.637Z,16.50
2022-08-28T06:31:23.637Z,16.40
2022-08-28T06:32:13.608Z,16.30
2022-08-28T06:33:14.395Z,16.30
2022-08-28T06:34:13.528Z,16.40
2022-08-28T06:35:13.418Z,16.40
2022-08-28T06:36:13.577Z,16.70
2022-08-28T06:37:14.079Z,16.50
2022-08-28T06:38:13.308Z,16.40
2022-08-28T06:39:13.745Z,16.30
2022-08-28T06:40:13.784Z,16.40
2022-08-28T06:41:13.964Z,16.40
2022-08-28T06:42:12.895Z,16.80
2022-08-28T06:43:12.764Z,16.60
2022-08-28T06:44:14.255Z,16.30
2022-08-28T06:45:13.207Z,16.50
2022-08-28T06:46:13.473Z,16.70
2022-08-28T06:47:13.877Z,17.20
2022-08-28T06:48:13.919Z,17.40
2022-08-28T06:49:13.030Z,17.50
2022-08-28T06:50:13.099Z,17.10
2022-08-28T06:51:13.140Z,17.20
2022-08-28T06:52:28.992Z,17.90
2022-08-28T06:53:12.796Z,18.10
2022-08-28T06:54:17.300Z,17.60
2022-08-28T06:55:13.472Z,17.10
2022-08-28T06:56:13.638Z,17.30
2022-08-28T06:57:13.511Z,17.30
2022-08-28T06:58:13.601Z,17.50
2022-08-28T06:59:13.914Z,17.70
2022-08-28T07:00:13.103Z,18.30
2022-08-28T07:01:14.371Z,17.60
2022-08-28T07:02:13.579Z,17.40
2022-08-28T07:03:13.617Z,17.90
2022-08-28T07:04:13.994Z,17.90
2022-08-28T07:05:14.533Z,17.60
2022-08-28T07:06:14.399Z,17.90
2022-08-28T07:07:31.352Z,18.20
2022-08-28T07:08:13.264Z,18.00
2022-08-28T07:09:13.365Z,18.10
2022-08-28T07:10:13.602Z,17.70
2022-08-28T07:11:13.421Z,17.60
2022-08-28T07:12:13.639Z,17.30
2022-08-28T07:13:13.835Z,17.60
2022-08-28T07:14:13.670Z,17.80
2022-08-28T07:15:13.564Z,17.80
2022-08-28T07:16:14.063Z,17.90
2022-08-28T07:17:13.473Z,17.90
2022-08-28T07:18:13.862Z,18.00
2022-08-28T07:20:28.958Z,17.80
2022-08-28T07:21:13.033Z,17.80
2022-08-28T07:22:13.051Z,17.90
2022-08-28T07:23:14.362Z,18.10
2022-08-28T07:24:18.520Z,18.30
2022-08-28T07:25:13.545Z,17.70
2022-08-28T07:26:13.655Z,17.90
2022-08-28T07:27:18.289Z,18.00
2022-08-28T07:28:13.182Z,18.00
2022-08-28T07:29:13.332Z,18.30
2022-08-28T07:30:13.421Z,18.20
2022-08-28T07:31:13.430Z,17.90
2022-08-28T07:32:13.502Z,18.10
2022-08-28T07:33:13.456Z,17.90
2022-08-28T07:34:14.964Z,18.50
2022-08-28T07:35:12.881Z,18.50
2022-08-28T07:36:15.909Z,18.40
2022-08-28T07:37:15.429Z,18.30
2022-08-28T07:38:13.869Z,18.80
2022-08-28T07:39:14.546Z,18.40
2022-08-28T07:40:13.659Z,18.10
2022-08-28T07:41:13.883Z,18.10
2022-08-28T07:42:14.351Z,17.80
2022-08-28T07:43:15.207Z,17.90
2022-08-28T07:44:14.469Z,17.80
2022-08-28T07:45:13.890Z,17.80
2022-08-28T07:46:13.182Z,18.80
2022-08-28T07:47:14.518Z,19.20
2022-08-28T07:48:14.169Z,18.70
2022-08-28T07:49:13.717Z,18.80
2022-08-28T07:50:13.821Z,19.20
2022-08-28T07:51:14.130Z,19.10
2022-08-28T07:52:13.366Z,19.30
2022-08-28T07:53:13.340Z,19.60
2022-08-28T07:54:15.591Z,19.80
2022-08-28T07:55:28.121Z,19.90
2022-08-28T07:56:15.091Z,19.60
2022-08-28T07:57:13.089Z,19.30
2022-08-28T07:58:13.124Z,18.80
2022-08-28T07:59:16.691Z,18.40
2022-08-28T08:00:13.199Z,18.00
2022-08-28T08:01:13.043Z,17.90
2022-08-28T08:02:12.914Z,17.70
2022-08-28T08:03:13.897Z,17.50
2022-08-28T08:04:12.840Z,17.60
2022-08-28T08:05:14.438Z,17.40
2022-08-28T08:06:13.673Z,17.60
2022-08-28T08:07:14.463Z,17.70
2022-08-28T08:08:13.774Z,17.40
2022-08-28T08:09:13.071Z,17.20
2022-08-28T08:10:13.281Z,17.20
2022-08-28T08:11:13.960Z,17.10
2022-08-28T08:12:13.665Z,17.10
2022-08-28T08:13:13.801Z,17.20
2022-08-28T08:14:13.161Z,17.20
2022-08-28T08:15:12.982Z,17.10
2022-08-28T08:16:12.847Z,17.40
2022-08-28T08:17:13.971Z,17.30
2022-08-28T08:18:14.101Z,17.50
2022-08-28T08:19:13.007Z,17.30
2022-08-28T08:20:13.119Z,17.30
2022-08-28T08:21:13.519Z,17.40
2022-08-28T08:22:13.630Z,17.50
2022-08-28T08:23:13.623Z,17.90
2022-08-28T08:24:17.964Z,18.10
2022-08-28T08:25:13.186Z,17.80
2022-08-28T08:26:13.370Z,17.70
2022-08-28T08:27:13.474Z,17.90
2022-08-28T08:28:13.693Z,18.50
2022-08-28T08:29:13.983Z,18.40
2022-08-28T08:30:12.753Z,18.10
2022-08-28T08:31:13.940Z,18.00
2022-08-28T08:32:12.974Z,18.60
2022-08-28T08:33:12.889Z,18.40
2022-08-28T08:34:13.878Z,18.10
2022-08-28T08:35:13.645Z,18.40
2022-08-28T08:36:13.820Z,18.20
2022-08-28T08:37:13.650Z,18.20
2022-08-28T08:38:13.570Z,18.30
2022-08-28T08:39:13.536Z,18.70
2022-08-28T08:40:12.914Z,18.70
2022-08-28T08:41:12.762Z,18.50
2022-08-28T08:42:13.758Z,18.30
2022-08-28T08:43:13.652Z,18.70
2022-08-28T08:44:13.751Z,19.00
2022-08-28T08:45:13.840Z,19.10
2022-08-28T08:46:14.054Z,19.00
2022-08-28T08:47:14.927Z,18.50
2022-08-28T08:48:13.461Z,19.20
2022-08-28T08:49:13.635Z,19.60
2022-08-28T08:50:13.694Z,19.40
2022-08-28T08:51:13.956Z,19.20
2022-08-28T08:52:12.989Z,19.10
2022-08-28T08:53:13.144Z,19.30
2022-08-28T08:54:13.011Z,19.00
2022-08-28T08:55:12.919Z,19.60
2022-08-28T08:56:12.988Z,19.00
2022-08-28T08:57:12.997Z,19.50
2022-08-28T08:58:13.316Z,19.90
2022-08-28T08:59:13.457Z,19.30
2022-08-28T09:00:15.948Z,19.30
2022-08-28T09:01:13.270Z,19.20
2022-08-28T09:02:14.814Z,19.20
2022-08-28T09:03:13.769Z,19.20
2022-08-28T09:04:15.719Z,18.80
2022-08-28T09:05:13.007Z,18.80
2022-08-28T09:06:15.589Z,19.30
2022-08-28T09:07:14.151Z,19.50
2022-08-28T09:08:15.167Z,20.00
2022-08-28T09:09:13.545Z,20.10
2022-08-28T09:10:13.615Z,20.10
2022-08-28T09:11:13.660Z,19.30
2022-08-28T09:12:14.027Z,18.80
2022-08-28T09:13:13.363Z,19.10
2022-08-28T09:14:13.269Z,19.00
2022-08-28T09:15:13.257Z,18.40
2022-08-28T09:16:13.482Z,19.00
2022-08-28T09:17:13.486Z,19.10
2022-08-28T09:18:13.449Z,19.20
2022-08-28T09:19:15.632Z,19.30
2022-08-28T09:20:13.903Z,19.40
2022-08-28T09:21:13.120Z,18.90
2022-08-28T09:22:13.083Z,18.70
2022-08-28T09:23:14.034Z,19.30
2022-08-28T09:24:13.053Z,20.60
2022-08-28T09:25:13.134Z,20.40
2022-08-28T09:26:13.565Z,20.50
2022-08-28T09:27:14.501Z,19.60
2022-08-28T09:28:13.961Z,19.50
2022-08-28T09:29:13.032Z,19.90
2022-08-28T09:30:12.972Z,21.00
2022-08-28T09:31:13.227Z,20.60
2022-08-28T09:32:13.347Z,20.10
2022-08-28T09:33:13.292Z,19.40
2022-08-28T09:34:13.240Z,19.00
2022-08-28T09:35:13.204Z,19.80
2022-08-28T09:36:13.180Z,20.30
2022-08-28T09:37:13.897Z,20.40
2022-08-28T09:38:13.442Z,19.40
2022-08-28T09:39:13.647Z,19.00
2022-08-28T09:40:13.685Z,20.10
2022-08-28T09:41:15.202Z,19.80
2022-08-28T09:42:13.292Z,19.40
2022-08-28T09:43:13.629Z,19.60
2022-08-28T09:44:13.847Z,19.40
2022-08-28T09:45:14.153Z,19.80
2022-08-28T09:46:14.310Z,21.20
2022-08-28T09:47:13.369Z,20.60
2022-08-28T09:48:13.351Z,20.40
2022-08-28T09:49:13.720Z,20.90
2022-08-28T09:50:13.681Z,20.40
2022-08-28T09:51:13.970Z,21.20
2022-08-28T09:52:13.951Z,21.40
2022-08-28T09:53:12.958Z,22.70
2022-08-28T09:54:12.832Z,22.80
2022-08-28T09:55:13.846Z,23.60
2022-08-28T09:56:13.725Z,23.40
2022-08-28T09:57:13.579Z,23.70
2022-08-28T09:58:13.975Z,22.30
2022-08-28T09:59:13.894Z,21.80
2022-08-28T10:00:13.981Z,21.20
2022-08-28T10:01:12.965Z,21.50
2022-08-28T10:02:13.259Z,22.80
2022-08-28T10:03:14.406Z,23.40
2022-08-28T10:04:13.380Z,23.90
2022-08-28T10:05:14.494Z,23.20
2022-08-28T10:06:15.002Z,23.50
2022-08-28T10:07:12.836Z,24.60
2022-08-28T10:08:14.023Z,25.20
2022-08-28T10:09:13.591Z,25.60
2022-08-28T10:10:13.662Z,24.60
2022-08-28T10:11:13.234Z,23.40
2022-08-28T10:12:13.145Z,23.20
2022-08-28T10:13:13.136Z,23.10
2022-08-28T10:14:13.114Z,22.70
2022-08-28T10:15:13.275Z,24.10
2022-08-28T10:16:13.386Z,24.10
2022-08-28T10:17:13.631Z,23.90
2022-08-28T10:18:15.022Z,23.90
2022-08-28T10:19:13.517Z,23.20
2022-08-28T10:20:13.402Z,23.70
2022-08-28T10:21:13.287Z,24.70
2022-08-28T10:22:15.014Z,25.30
2022-08-28T10:23:17.673Z,24.50
2022-08-28T10:24:14.209Z,24.70
2022-08-28T10:25:13.001Z,25.30
2022-08-28T10:26:14.570Z,24.60
2022-08-28T10:27:13.623Z,23.90
2022-08-28T10:28:13.592Z,22.50
2022-08-28T10:29:13.680Z,21.50
2022-08-28T10:30:15.127Z,22.00
2022-08-28T10:31:13.199Z,22.00
2022-08-28T10:32:13.398Z,22.30
2022-08-28T10:33:15.118Z,22.50
2022-08-28T10:34:13.043Z,23.40
2022-08-28T10:35:14.067Z,23.60
2022-08-28T10:36:34.167Z,24.20
2022-08-28T10:37:14.774Z,23.50
2022-08-28T10:38:13.959Z,22.80
2022-08-28T10:39:13.132Z,22.80
2022-08-28T10:40:12.985Z,23.30
2022-08-28T10:41:12.902Z,23.10
2022-08-28T10:42:13.741Z,22.70
2022-08-28T10:43:13.885Z,22.10
2022-08-28T10:44:13.422Z,22.90
2022-08-28T10:45:13.392Z,23.00
2022-08-28T10:46:15.176Z,24.30
2022-08-28T10:47:14.128Z,24.10
2022-08-28T10:48:13.338Z,23.80
2022-08-28T10:49:29.217Z,23.20
2022-08-28T10:50:14.641Z,22.50
2022-08-28T10:51:13.825Z,24.50
2022-08-28T10:52:14.202Z,23.40
2022-08-28T10:53:14.525Z,23.80
2022-08-28T10:54:13.807Z,24.00
2022-08-28T10:55:13.636Z,23.50
2022-08-28T10:56:14.843Z,23.30
2022-08-28T10:57:13.629Z,23.00
2022-08-28T10:58:24.798Z,24.20
2022-08-28T10:59:13.613Z,24.10
2022-08-28T11:00:21.782Z,23.10
2022-08-28T11:01:15.677Z,24.00
2022-08-28T11:02:15.663Z,23.30
2022-08-28T11:03:33.174Z,23.10
2022-08-28T11:04:14.579Z,22.70
2022-08-28T11:05:18.708Z,22.60
2022-08-28T11:06:15.738Z,23.10
2022-08-28T11:07:13.664Z,23.00
2022-08-28T11:08:16.414Z,22.90
2022-08-28T11:09:15.194Z,22.40
2022-08-28T11:10:20.925Z,22.30
2022-08-28T11:11:14.237Z,23.70
2022-08-28T11:12:15.659Z,24.60
2022-08-28T11:13:18.464Z,23.90
2022-08-28T11:14:14.679Z,25.40
2022-08-28T11:15:14.769Z,26.50
2022-08-28T11:16:15.927Z,24.90
2022-08-28T11:17:16.504Z,24.60
2022-08-28T11:18:17.714Z,25.90
2022-08-28T11:19:16.902Z,25.90
2022-08-28T11:20:16.857Z,25.10
2022-08-28T11:21:17.249Z,25.80
2022-08-28T11:22:16.447Z,24.90
2022-08-28T11:23:17.297Z,24.60
2022-08-28T11:24:17.585Z,24.60
2022-08-28T11:25:16.019Z,24.70
2022-08-28T11:26:16.970Z,26.20
2022-08-28T11:27:17.776Z,25.80
2022-08-28T11:28:14.323Z,26.60
2022-08-28T11:29:17.848Z,25.70
2022-08-28T11:30:14.579Z,24.50
2022-08-28T11:31:19.106Z,23.80
2022-08-28T11:32:17.473Z,23.50
2022-08-28T11:33:18.369Z,24.80
2022-08-28T11:34:17.174Z,25.20
2022-08-28T11:35:14.685Z,25.90
2022-08-28T11:36:16.478Z,25.50
2022-08-28T11:37:18.264Z,23.70
2022-08-28T11:38:18.418Z,23.50
2022-08-28T11:39:13.009Z,24.10
2022-08-28T11:40:14.771Z,24.00
2022-08-28T11:41:15.769Z,24.40
2022-08-28T11:42:17.109Z,24.50
2022-08-28T11:43:17.160Z,23.50
2022-08-28T11:44:16.204Z,23.40
2022-08-28T11:45:16.252Z,23.90
2022-08-28T11:46:22.187Z,24.00
2022-08-28T11:47:16.326Z,25.30
2022-08-28T11:48:16.552Z,24.90
2022-08-28T11:49:14.474Z,24.40
2022-08-28T11:50:14.884Z,24.30
2022-08-28T11:51:16.441Z,24.50
2022-08-28T11:52:13.469Z,23.60
2022-08-28T11:53:20.790Z,23.60
2022-08-28T11:54:16.288Z,24.40
2022-08-28T11:55:13.088Z,24.50
2022-08-28T11:56:21.777Z,24.90
2022-08-28T11:57:14.188Z,25.70
2022-08-28T11:58:19.399Z,25.70
2022-08-28T11:59:19.395Z,24.70
2022-08-28T12:00:17.539Z,24.30
2022-08-28T12:01:14.478Z,24.80
2022-08-28T12:02:16.885Z,26.30
2022-08-28T12:03:16.262Z,24.50
2022-08-28T12:04:15.507Z,24.80
2022-08-28T12:05:16.479Z,25.90
2022-08-28T12:06:17.474Z,25.40
2022-08-28T12:07:17.883Z,25.40
2022-08-28T12:08:16.756Z,25.60
2022-08-28T12:09:17.312Z,26.50
2022-08-28T12:10:16.104Z,25.50
2022-08-28T12:11:19.880Z,25.70
2022-08-28T12:12:17.068Z,25.30
2022-08-28T12:13:14.885Z,24.00
2022-08-28T12:14:16.340Z,24.00
2022-08-28T12:15:19.288Z,25.20
2022-08-28T12:16:17.634Z,25.00
2022-08-28T12:17:15.067Z,24.70
2022-08-28T12:18:17.848Z,24.70
2022-08-28T12:19:17.415Z,25.10
2022-08-28T12:20:16.441Z,25.10
2022-08-28T12:21:16.930Z,25.50
2022-08-28T12:22:18.609Z,25.40
2022-08-28T12:23:16.548Z,25.20
2022-08-28T12:24:18.063Z,25.40
2022-08-28T12:25:16.301Z,24.80
2022-08-28T12:26:18.644Z,23.80
2022-08-28T12:27:18.221Z,23.90
2022-08-28T12:28:17.819Z,25.00
2022-08-28T12:29:18.643Z,25.30
2022-08-28T12:30:19.683Z,24.30
2022-08-28T12:31:14.206Z,24.00
2022-08-28T12:32:16.876Z,23.50
2022-08-28T12:33:16.876Z,23.20
2022-08-28T12:34:13.039Z,23.60
2022-08-28T12:36:18.311Z,25.20
2022-08-28T12:37:13.321Z,24.20
2022-08-28T12:38:15.605Z,23.80
2022-08-28T12:39:16.871Z,24.90
2022-08-28T12:40:17.466Z,26.40
2022-08-28T12:41:15.492Z,26.80
2022-08-28T12:42:18.578Z,27.10
2022-08-28T12:43:18.425Z,27.60
2022-08-28T12:44:16.644Z,27.20
2022-08-28T12:45:19.421Z,25.60
2022-08-28T12:46:18.885Z,26.00
2022-08-28T12:47:20.855Z,27.10
2022-08-28T12:48:18.375Z,26.80
2022-08-28T12:49:18.817Z,27.30
2022-08-28T12:50:17.234Z,27.80
2022-08-28T12:51:19.427Z,25.90
2022-08-28T12:52:17.505Z,26.20
2022-08-28T12:53:17.364Z,25.10
2022-08-28T12:54:17.662Z,25.50